Time;durP1;ratioP1;P1;durP2;ratioP2;P2;SDS_P1;SDS_P2;PMS_P1;PMS_P2;Temp;Humidity;BMP_temperature;BMP_pressure;BME280_temperature;BME280_humidity;BME280_pressure;Samples;Min_cycle;Max_cycle;Signal;HPM_P1;HPM_P2
2022/01/09 00:00:49;;;;;;;147.10;89.60;;;;;;;-1.24;90.18;98019.91;105174;1269;73395;-73
2022/01/09 00:03:16;;;;;;;157.70;90.90;;;;;;;-1.25;89.92;98015.61;105225;1271;61273;-73
2022/01/09 00:05:44;;;;;;;160.30;92.90;;;;;;;-1.29;89.85;98007.73;105172;1271;61166;-72
2022/01/09 00:08:10;;;;;;;155.00;91.10;;;;;;;-1.33;89.93;98009.06;105184;1271;76184;-72
2022/01/09 00:10:37;;;;;;;145.60;85.90;;;;;;;-1.36;89.97;98003.60;105179;1271;70297;-73
2022/01/09 00:13:03;;;;;;;152.70;91.60;;;;;;;-1.39;90.01;97998.31;105131;1270;73976;-72
2022/01/09 00:15:30;;;;;;;143.00;86.40;;;;;;;-1.40;89.95;97996.96;105195;1271;61393;-72
2022/01/09 00:17:57;;;;;;;143.60;84.50;;;;;;;-1.39;90.09;97994.29;105249;1271;61419;-72
2022/01/09 00:20:23;;;;;;;143.20;82.30;;;;;;;-1.37;90.32;97992.15;105127;1271;75084;-72
2022/01/09 00:22:51;;;;;;;137.50;84.30;;;;;;;-1.34;90.35;97989.77;105304;1271;68793;-72
2022/01/09 00:25:21;;;;;;;151.10;90.50;;;;;;;-1.30;90.42;97986.69;105179;1271;73641;-74
2022/01/09 00:27:49;;;;;;;;;;;;;;;-1.26;90.41;97978.70;105304;1271;61266;-72
2022/01/09 00:30:19;;;;;;;153.90;93.30;;;;;;;-1.23;90.42;97979.27;105233;1271;61150;-72
2022/01/09 00:32:46;;;;;;;158.40;93.30;;;;;;;-1.23;90.31;97975.80;105381;1270;74652;-72
2022/01/09 00:35:14;;;;;;;151.90;97.00;;;;;;;-1.23;90.33;97975.80;105261;1271;69073;-74
2022/01/09 00:37:41;;;;;;;172.20;99.60;;;;;;;-1.23;90.29;97973.20;105220;1271;72987;-72
2022/01/09 00:40:10;;;;;;;161.80;96.50;;;;;;;-1.24;90.53;97968.31;105267;1271;61240;-72
2022/01/09 00:42:36;;;;;;;170.20;103.30;;;;;;;-1.27;90.69;97967.23;105312;1271;61803;-73
2022/01/09 00:45:06;;;;;;;161.50;100.50;;;;;;;-1.29;90.69;97965.40;105581;1271;75748;-72
2022/01/09 00:47:33;;;;;;;159.20;99.00;;;;;;;-1.31;90.77;97961.61;105375;1271;70410;-71
2022/01/09 00:50:00;;;;;;;153.90;93.90;;;;;;;-1.31;90.65;97964.05;105121;1271;74208;-73
2022/01/09 00:52:26;;;;;;;143.20;88.80;;;;;;;-1.31;90.67;97959.36;105189;1270;61283;-72
2022/01/09 00:54:53;;;;;;;151.80;89.40;;;;;;;-1.29;90.80;97958.77;105190;1271;61153;-73
2022/01/09 00:57:19;;;;;;;150.80;91.60;;;;;;;-1.26;90.90;97956.20;105236;1271;75165;-71
2022/01/09 00:59:46;;;;;;;158.20;96.40;;;;;;;-1.23;90.95;97955.61;105173;1271;61272;-72
2022/01/09 01:02:13;;;;;;;160.90;95.90;;;;;;;-1.20;90.90;97949.55;105152;1271;61285;-73
2022/01/09 01:04:40;;;;;;;163.60;99.00;;;;;;;-1.20;90.77;97945.03;105193;1271;61525;-73
2022/01/09 01:07:07;;;;;;;156.30;99.10;;;;;;;-1.21;90.94;97943.84;105210;1271;61323;-73
2022/01/09 01:09:34;;;;;;;159.70;99.60;;;;;;;-1.21;91.08;97941.41;105256;1271;216528;-74
2022/01/09 01:12:02;;;;;;;162.90;99.20;;;;;;;-1.23;91.08;97944.61;105229;1271;69195;-73
2022/01/09 01:14:31;;;;;;;158.00;97.60;;;;;;;-1.27;91.16;97944.75;105199;1271;72176;-73
2022/01/09 01:16:59;;;;;;;166.50;101.40;;;;;;;-1.34;91.17;97945.54;104969;1271;61464;-73
2022/01/09 01:19:26;;;;;;;154.00;96.50;;;;;;;-1.40;91.39;97940.33;105243;1271;61176;-71
2022/01/09 01:21:52;;;;;;;150.40;93.00;;;;;;;-1.45;91.38;97940.85;105168;1271;76372;-72
2022/01/09 01:24:21;;;;;;;153.60;91.80;;;;;;;-1.46;91.46;97937.75;105192;1271;68249;-74
2022/01/09 01:26:48;;;;;;;155.10;91.20;;;;;;;-1.48;91.52;97936.95;105197;1271;73392;-71
2022/01/09 01:29:15;;;;;;;148.70;92.90;;;;;;;-1.49;91.76;97940.50;105209;1271;61348;-72
2022/01/09 01:31:42;;;;;;;166.30;101.30;;;;;;;-1.48;91.94;97933.84;105226;1270;61259;-72
2022/01/09 01:34:08;;;;;;;162.10;102.60;;;;;;;-1.43;92.13;97937.85;105210;1271;76327;-73
2022/01/09 01:36:35;;;;;;;161.20;105.70;;;;;;;-1.39;92.08;97929.14;105195;1271;62583;-73
2022/01/09 01:39:02;;;;;;;170.30;106.40;;;;;;;-1.38;92.06;97919.70;105162;1271;61180;-72
2022/01/09 01:41:28;;;;;;;174.60;110.60;;;;;;;-1.39;91.93;97912.27;104976;1271;61308;-73
2022/01/09 01:43:55;;;;;;;177.80;109.10;;;;;;;-1.39;91.95;97902.30;105213;1271;61256;-73
2022/01/09 01:46:22;;;;;;;175.50;109.60;;;;;;;-1.40;91.99;97901.85;104849;1271;74963;-72
2022/01/09 01:48:48;;;;;;;170.50;107.80;;;;;;;-1.45;92.03;97895.59;105121;1271;69312;-72
2022/01/09 01:51:15;;;;;;;174.50;107.40;;;;;;;-1.52;91.93;97894.43;105142;1271;73875;-72
2022/01/09 01:53:42;;;;;;;175.40;109.00;;;;;;;-1.60;92.03;97892.81;105174;1271;61350;-72
2022/01/09 01:56:12;;;;;;;169.20;106.10;;;;;;;-1.69;91.99;97889.83;105279;1271;61282;-72
2022/01/09 01:58:39;;;;;;;168.40;107.30;;;;;;;-1.81;92.09;97884.13;105329;1271;75462;-73
2022/01/09 02:01:05;;;;;;;166.10;105.10;;;;;;;-1.92;92.16;97889.41;105210;1270;61385;-74
2022/01/09 02:03:32;;;;;;;160.50;100.90;;;;;;;-2.05;92.29;97888.62;105176;1271;73370;-73
2022/01/09 02:05:59;;;;;;;169.90;105.60;;;;;;;-2.17;92.49;97884.15;105223;1271;61490;-73
2022/01/09 02:08:25;;;;;;;172.90;105.70;;;;;;;-2.24;92.55;97877.27;105220;1271;61189;-73
2022/01/09 02:10:52;;;;;;;169.90;105.10;;;;;;;-2.27;92.86;97874.91;105154;1271;61275;-72
2022/01/09 02:13:19;;;;;;;177.40;110.30;;;;;;;-2.30;92.93;97874.69;105210;1271;70190;-73
2022/01/09 02:15:47;;;;;;;172.40;106.20;;;;;;;-2.35;93.12;97874.31;105191;1271;73298;-72
2022/01/09 02:18:17;;;;;;;177.30;107.90;;;;;;;-2.46;93.00;97869.27;105219;1271;61303;-73
2022/01/09 02:20:45;;;;;;;172.30;106.70;;;;;;;-2.52;93.25;97864.79;105362;1270;61933;-73
2022/01/09 02:23:14;;;;;;;181.40;106.50;;;;;;;-2.56;93.36;97863.02;105150;1271;75218;-72
2022/01/09 02:25:42;;;;;;;169.20;105.10;;;;;;;-2.63;93.35;97862.90;105227;1270;69390;-75
2022/01/09 02:28:10;;;;;;;170.90;105.80;;;;;;;-2.72;93.44;97867.52;105156;1271;74657;-71
2022/01/09 02:30:37;;;;;;;173.20;108.70;;;;;;;-2.80;93.56;97864.46;104412;1271;1003452;-72
2022/01/09 02:33:09;;;;;;;182.90;111.80;;;;;;;-2.86;93.68;97864.30;105122;1271;61250;-72
2022/01/09 02:35:37;;;;;;;170.50;107.90;;;;;;;-2.90;93.82;97869.48;105202;1271;75331;-72
2022/01/09 02:38:05;;;;;;;171.00;108.20;;;;;;;-2.93;93.94;97872.02;105179;1271;68254;-72
2022/01/09 02:40:32;;;;;;;171.60;108.70;;;;;;;-2.95;94.04;97872.41;105177;1271;74507;-73
2022/01/09 02:43:00;;;;;;;169.70;106.40;;;;;;;-2.95;94.11;97868.58;105140;1271;62024;-72
2022/01/09 02:45:27;;;;;;;170.10;107.50;;;;;;;-2.94;94.16;97863.88;105160;1271;61137;-74
2022/01/09 02:47:57;;;;;;;167.80;108.10;;;;;;;-2.92;94.37;97855.45;105233;1271;75278;-74
2022/01/09 02:52:55;;;;;;;177.50;109.70;;;;;;;-2.78;94.44;97850.52;105201;1271;72127;-74
2022/01/09 02:55:24;;;;;;;165.40;104.80;;;;;;;-2.77;94.52;97846.64;105164;1271;61326;-74
2022/01/09 02:57:54;;;;;;;167.40;106.40;;;;;;;-2.76;94.50;97839.84;105382;1271;61447;-75
2022/01/09 03:00:33;;;;;;;165.70;103.10;;;;;;;-2.76;94.45;97830.27;105168;1271;75098;-73
2022/01/09 03:03:01;;;;;;;166.80;105.40;;;;;;;-2.80;94.24;97820.52;104879;1272;69382;-72
2022/01/09 03:05:29;;;;;;;169.70;108.30;;;;;;;-2.83;94.49;97811.71;105049;1271;73169;-74
2022/01/09 03:07:56;;;;;;;169.90;107.40;;;;;;;-2.84;94.68;97810.20;104886;1274;61385;-73
2022/01/09 03:10:24;;;;;;;166.90;106.70;;;;;;;-2.85;94.75;97809.70;105130;1271;61142;-73
2022/01/09 03:12:52;;;;;;;167.20;104.40;;;;;;;-2.84;94.92;97807.06;105101;1272;74687;-72
2022/01/09 03:15:19;;;;;;;171.80;107.00;;;;;;;-2.85;94.77;97807.96;105130;1271;69252;-73
2022/01/09 03:17:46;;;;;;;174.00;105.70;;;;;;;-2.88;94.74;97797.27;105041;1271;73004;-73
2022/01/09 03:20:18;;;;;;;173.90;104.00;;;;;;;-2.92;94.69;97787.85;105066;1272;61395;-73
2022/01/09 03:22:45;;;;;;;176.00;104.10;;;;;;;-2.96;94.80;97779.48;104890;1272;61473;-72
2022/01/09 03:25:13;;;;;;;157.10;97.30;;;;;;;-3.02;94.85;97773.42;105062;1271;76195;-72
2022/01/09 03:27:41;;;;;;;159.70;102.30;;;;;;;-3.09;94.83;97774.32;105315;1271;69016;-74
2022/01/09 03:30:09;;;;;;;176.00;100.30;;;;;;;-3.13;94.93;97771.16;104951;1272;73414;-72
2022/01/09 03:32:37;;;;;;;157.10;95.40;;;;;;;-3.14;95.17;97772.42;105097;1271;61634;-72
2022/01/09 03:35:06;;;;;;;167.20;96.60;;;;;;;-3.16;95.23;97768.64;105109;1271;61282;-71
2022/01/09 03:37:34;;;;;;;156.30;94.50;;;;;;;-3.16;95.21;97769.86;105194;1271;76321;-73
2022/01/09 03:40:01;;;;;;;156.30;88.90;;;;;;;-3.18;95.27;97758.48;104857;1274;70285;-73
2022/01/09 03:42:27;;;;;;;152.60;88.50;;;;;;;-3.20;95.40;97752.80;105058;1271;73345;-72
2022/01/09 03:44:54;;;;;;;140.00;84.10;;;;;;;-3.23;95.36;97749.92;105076;1271;61330;-74
2022/01/09 03:47:20;;;;;;;132.50;82.20;;;;;;;-3.25;95.45;97755.23;105037;1271;61245;-72
2022/01/09 03:49:47;;;;;;;139.50;83.00;;;;;;;-3.29;95.46;97756.91;105094;1271;60960;-75
2022/01/09 03:52:14;;;;;;;140.80;84.80;;;;;;;-3.34;95.46;97758.45;105103;1271;69221;-72
2022/01/09 03:54:41;;;;;;;145.20;86.00;;;;;;;-3.42;95.42;97764.09;105769;1271;73184;-73
2022/01/09 03:57:07;;;;;;;141.80;86.30;;;;;;;-3.48;95.56;97762.88;105528;1271;61483;-74
2022/01/09 03:59:34;;;;;;;141.70;87.70;;;;;;;-3.51;95.60;97760.70;105244;1273;61234;-72
2022/01/09 04:02:02;;;;;;;133.30;80.90;;;;;;;-3.55;95.55;97761.67;105168;1271;76233;-72
2022/01/09 04:04:28;;;;;;;145.50;82.00;;;;;;;-3.58;95.68;97762.98;105257;1271;70200;-73
2022/01/09 04:06:55;;;;;;;142.20;82.10;;;;;;;-3.62;95.82;97764.50;105207;1271;74177;-73
2022/01/09 04:09:36;;;;;;;140.10;83.70;;;;;;;-3.66;95.86;97762.38;104767;1271;61261;-74
2022/01/09 04:12:06;;;;;;;150.20;82.10;;;;;;;-3.69;95.98;97758.81;105057;1271;61269;-74
2022/01/09 04:14:33;;;;;;;134.10;80.70;;;;;;;-3.71;96.12;97765.13;105311;1271;75406;-74
2022/01/09 04:17:01;;;;;;;135.70;81.70;;;;;;;-3.71;96.15;97768.09;105281;1271;69513;-72
2022/01/09 04:19:28;;;;;;;137.20;83.70;;;;;;;-3.71;96.15;97768.95;105219;1271;73342;-72
2022/01/09 04:21:54;;;;;;;133.70;79.40;;;;;;;-3.73;96.14;97769.01;105256;1271;61278;-74
2022/01/09 04:24:21;;;;;;;134.60;81.90;;;;;;;-3.77;96.23;97770.48;105061;1271;61333;-72
2022/01/09 04:26:47;;;;;;;129.40;76.20;;;;;;;-3.79;96.26;97774.20;105040;1271;61480;-72
2022/01/09 04:29:14;;;;;;;137.60;82.00;;;;;;;-3.78;96.36;97771.94;105232;1271;61223;-72
2022/01/09 04:31:40;;;;;;;136.40;82.70;;;;;;;-3.74;96.47;97773.36;105179;1271;61372;-72
2022/01/09 04:34:06;;;;;;;135.70;79.30;;;;;;;-3.66;96.50;97776.27;104987;1271;61287;-72
2022/01/09 04:36:33;;;;;;;138.50;80.50;;;;;;;-3.59;96.42;97781.42;103056;1271;1003631;-74
2022/01/09 04:38:59;;;;;;;140.10;81.60;;;;;;;-3.53;96.38;97780.89;105182;1269;61459;-73
2022/01/09 04:41:26;;;;;;;119.90;78.70;;;;;;;-3.49;96.29;97782.35;105231;1271;61368;-73
2022/01/09 04:43:53;;;;;;;142.00;82.50;;;;;;;-3.43;96.38;97785.10;105209;1271;61262;-74
2022/01/09 04:46:27;;;;;;;131.80;78.80;;;;;;;-3.35;96.37;97785.73;105158;1271;61378;-73
2022/01/09 04:48:55;;;;;;;148.00;87.10;;;;;;;-3.29;96.29;97787.30;105027;1274;61304;-74
2022/01/09 04:51:22;;;;;;;132.20;81.90;;;;;;;-3.25;96.28;97785.26;105253;1271;75158;-73
2022/01/09 04:53:49;;;;;;;142.20;81.90;;;;;;;-3.18;96.37;97785.04;105175;1271;69515;-72
2022/01/09 04:56:15;;;;;;;159.50;87.40;;;;;;;-3.16;96.41;97787.77;105196;1271;72630;-74
2022/01/09 04:58:42;;;;;;;143.00;85.50;;;;;;;-3.14;96.39;97784.40;105220;1271;61645;-72
2022/01/09 05:01:09;;;;;;;139.30;82.70;;;;;;;-3.09;96.42;97781.46;105229;1271;61369;-73
2022/01/09 05:03:35;;;;;;;145.60;83.50;;;;;;;-3.05;96.36;97777.16;105252;1271;75706;-74
2022/01/09 05:06:02;;;;;;;141.70;83.80;;;;;;;-3.01;96.52;97777.90;105211;1270;69455;-73
2022/01/09 05:08:29;;;;;;;139.80;84.60;;;;;;;-3.03;96.31;97779.36;105185;1271;73206;-72
2022/01/09 05:10:55;;;;;;;144.70;87.20;;;;;;;-3.09;96.40;97783.54;105175;1271;61274;-72
2022/01/09 05:13:22;;;;;;;139.00;85.30;;;;;;;-3.15;96.38;97779.74;105166;1271;61175;-74
2022/01/09 05:15:48;;;;;;;146.60;86.90;;;;;;;-3.21;96.44;97777.84;104915;1271;61282;-72
2022/01/09 05:18:15;;;;;;;150.70;88.10;;;;;;;-3.34;96.37;97777.73;105225;1271;69216;-72
2022/01/09 05:20:43;;;;;;;135.70;84.60;;;;;;;-3.50;96.20;97778.56;105221;1270;74531;-72
2022/01/09 05:23:10;;;;;;;151.20;90.20;;;;;;;-3.61;96.28;97780.80;105349;1271;61298;-72
2022/01/09 05:25:37;;;;;;;154.90;90.40;;;;;;;-3.70;96.30;97776.90;105161;1271;62078;-73
2022/01/09 05:28:04;;;;;;;151.70;90.30;;;;;;;-3.78;96.54;97773.27;104479;1271;1003881;-72
2022/01/09 05:30:31;;;;;;;160.00;93.60;;;;;;;-3.80;96.84;97780.81;105184;1271;69260;-74
2022/01/09 05:32:57;;;;;;;152.50;93.30;;;;;;;-3.79;96.98;97782.18;105135;1271;71612;-73
2022/01/09 05:35:25;;;;;;;148.30;93.10;;;;;;;-3.80;97.01;97773.55;105205;1271;61409;-74
2022/01/09 05:37:52;;;;;;;152.50;93.00;;;;;;;-3.87;96.88;97773.91;105211;1271;61269;-73
2022/01/09 05:40:19;;;;;;;152.20;94.70;;;;;;;-3.93;96.86;97780.87;105235;1271;76119;-73
2022/01/09 05:42:47;;;;;;;151.60;93.20;;;;;;;-3.99;96.94;97779.65;105203;1271;70154;-72
2022/01/09 05:45:17;;;;;;;159.70;93.50;;;;;;;-4.04;96.93;97779.09;105176;1271;73420;-73
2022/01/09 05:47:44;;;;;;;;;;;;;;;-4.12;96.88;97782.42;105197;1271;61295;-72
2022/01/09 05:50:11;;;;;;;148.00;89.50;;;;;;;-4.17;97.03;97784.48;103749;1271;1003023;-73
2022/01/09 05:52:38;;;;;;;159.20;91.30;;;;;;;-4.21;97.09;97784.58;105224;1271;75193;-72
2022/01/09 05:55:05;;;;;;;148.90;90.40;;;;;;;-4.23;97.30;97780.64;105193;1271;69074;-72
2022/01/09 05:57:32;;;;;;;152.10;92.70;;;;;;;-4.27;97.23;97781.28;104907;1271;73228;-72
2022/01/09 05:59:59;;;;;;;150.70;92.20;;;;;;;-4.29;97.34;97780.83;105238;1271;61344;-72
2022/01/09 06:02:25;;;;;;;143.80;92.70;;;;;;;-4.33;97.34;97779.71;105278;1271;61235;-73
2022/01/09 06:04:52;;;;;;;137.70;87.60;;;;;;;-4.41;97.05;97780.79;105218;1270;75180;-74
2022/01/09 06:07:18;;;;;;;145.60;90.20;;;;;;;-4.49;97.21;97780.64;105244;1271;61252;-72
2022/01/09 06:09:45;;;;;;;145.80;89.40;;;;;;;-4.53;97.16;97784.22;105122;1271;61356;-74
2022/01/09 06:12:11;;;;;;;137.60;89.10;;;;;;;-4.58;97.21;97785.58;105262;1271;61274;-73
2022/01/09 06:14:38;;;;;;;144.10;92.00;;;;;;;-4.60;97.53;97785.98;103798;1271;1002949;-72
2022/01/09 06:17:05;;;;;;;146.20;91.00;;;;;;;-4.60;97.59;97789.78;105281;1271;61386;-74
2022/01/09 06:19:31;;;;;;;139.00;87.00;;;;;;;-4.66;97.48;97794.08;105215;1271;71193;-73
2022/01/09 06:21:58;;;;;;;147.30;89.30;;;;;;;-4.73;97.34;97795.13;105208;1271;61267;-73
2022/01/09 06:24:24;;;;;;;145.80;87.70;;;;;;;-4.76;97.45;97801.27;105272;1271;61281;-72
2022/01/09 06:26:51;;;;;;;142.60;87.60;;;;;;;-4.80;97.29;97800.17;105237;1271;61223;-72
2022/01/09 06:29:19;;;;;;;144.80;94.20;;;;;;;-4.87;97.28;97796.85;104979;1271;61367;-72
2022/01/09 06:31:45;;;;;;;149.90;90.50;;;;;;;-4.91;97.23;97799.91;105189;1271;69138;-73
2022/01/09 06:34:13;;;;;;;145.00;87.80;;;;;;;-4.97;97.35;97802.14;105218;1271;74650;-73
2022/01/09 06:36:40;;;;;;;144.80;94.70;;;;;;;-5.00;97.45;97800.11;105205;1271;61343;-72
2022/01/09 06:39:08;;;;;;;150.00;92.30;;;;;;;-5.02;97.61;97797.40;105233;1271;61335;-72
2022/01/09 06:41:34;;;;;;;154.00;95.20;;;;;;;-5.03;97.51;97793.79;105194;1271;75339;-73
2022/01/09 06:44:01;;;;;;;153.10;98.00;;;;;;;-5.02;97.73;97793.42;105218;1271;70361;-73
2022/01/09 06:46:27;;;;;;;150.30;94.40;;;;;;;-5.01;97.66;97799.29;105177;1271;61290;-71
2022/01/09 06:48:54;;;;;;;153.70;94.30;;;;;;;-5.03;97.51;97800.54;105202;1271;61377;-72
2022/01/09 06:51:20;;;;;;;145.70;95.10;;;;;;;-5.05;97.62;97796.43;105065;1271;61272;-73
2022/01/09 06:53:47;;;;;;;152.30;94.00;;;;;;;-5.08;97.49;97793.03;105203;1271;61372;-73
2022/01/09 06:56:13;;;;;;;149.90;96.70;;;;;;;-5.09;97.66;97788.89;105013;1271;61366;-73
2022/01/09 06:58:40;;;;;;;157.90;95.80;;;;;;;-5.10;97.70;97785.64;105248;1271;73346;-73
2022/01/09 07:01:07;;;;;;;157.10;100.10;;;;;;;-5.10;97.87;97786.34;105005;1271;61338;-72
2022/01/09 07:03:34;;;;;;;162.60;101.90;;;;;;;-5.12;97.87;97785.33;105186;1271;61276;-73
2022/01/09 07:06:01;;;;;;;155.00;98.50;;;;;;;-5.11;97.81;97785.16;105255;1271;61379;-72
2022/01/09 07:08:28;;;;;;;155.80;99.60;;;;;;;-5.12;97.80;97786.91;105234;1271;69673;-74
2022/01/09 07:10:55;;;;;;;153.30;101.30;;;;;;;-5.12;97.92;97785.52;105195;1271;74431;-73
2022/01/09 07:13:22;;;;;;;156.30;97.60;;;;;;;-5.12;97.79;97785.16;105244;1271;61202;-73
2022/01/09 07:15:48;;;;;;;153.50;97.70;;;;;;;-5.11;97.83;97789.29;104804;1276;61408;-73
2022/01/09 07:18:15;;;;;;;152.50;98.60;;;;;;;-5.09;97.87;97783.71;104811;1276;76103;-73
2022/01/09 07:20:42;;;;;;;149.20;98.80;;;;;;;-5.07;98.02;97785.91;104843;1277;61336;-72
2022/01/09 07:23:08;;;;;;;148.10;96.80;;;;;;;-5.05;98.10;97785.52;104817;1276;74294;-74
2022/01/09 07:25:35;;;;;;;150.40;97.30;;;;;;;-5.03;98.07;97786.00;104847;1276;61277;-75
2022/01/09 07:28:02;;;;;;;152.50;99.60;;;;;;;-4.98;98.10;97785.88;104649;1276;61325;-71
2022/01/09 07:30:29;;;;;;;160.20;96.40;;;;;;;-4.90;98.32;97783.43;104554;1279;75173;-75
2022/01/09 07:32:57;;;;;;;151.40;95.70;;;;;;;-4.85;98.09;97778.27;104907;1276;69248;-74
2022/01/09 07:35:24;;;;;;;152.90;99.30;;;;;;;-4.77;98.22;97776.00;104833;1276;73235;-73
2022/01/09 07:37:51;;;;;;;149.30;96.90;;;;;;;-4.71;98.17;97773.41;104674;1276;61262;-73
2022/01/09 07:40:20;;;;;;;153.40;100.60;;;;;;;-4.64;98.16;97779.47;104904;1276;61310;-72
2022/01/09 07:42:47;;;;;;;171.70;104.70;;;;;;;-4.56;98.54;97777.02;104601;1277;73321;-73
2022/01/09 07:45:16;;;;;;;168.60;102.00;;;;;;;-4.43;98.89;97774.59;104851;1277;69677;-73
2022/01/09 07:47:42;;;;;;;159.90;98.50;;;;;;;-4.30;98.84;97767.85;105140;1271;73324;-74
2022/01/09 07:50:10;;;;;;;172.90;104.20;;;;;;;-4.19;98.99;97765.45;105204;1271;61294;-73
2022/01/09 07:52:38;;;;;;;159.90;95.40;;;;;;;-4.05;99.05;97770.79;105406;1271;61497;-73
2022/01/09 07:55:07;;;;;;;167.00;98.00;;;;;;;-3.93;99.24;97762.64;105262;1271;76188;-72
2022/01/09 07:57:35;;;;;;;176.80;105.20;;;;;;;-3.81;99.29;97759.85;105159;1271;69565;-75
2022/01/09 08:00:06;;;;;;;165.90;99.40;;;;;;;-3.71;99.31;97758.35;105148;1271;72605;-73
2022/01/09 08:02:33;;;;;;;149.60;96.40;;;;;;;-3.61;99.25;97754.58;104928;1271;61442;-74
2022/01/09 08:05:00;;;;;;;147.00;94.10;;;;;;;-3.52;99.21;97756.41;105204;1271;61134;-73
2022/01/09 08:07:26;;;;;;;148.50;92.40;;;;;;;-3.43;99.24;97755.27;105242;1271;75050;-73
2022/01/09 08:09:54;;;;;;;144.80;92.60;;;;;;;-3.34;99.29;97751.14;105026;1271;67510;-72
2022/01/09 08:12:20;;;;;;;147.00;94.70;;;;;;;-3.24;99.33;97746.34;105208;1271;61298;-74
2022/01/09 08:14:49;;;;;;;145.80;91.40;;;;;;;-3.15;99.25;97743.42;104937;1271;61782;-72
2022/01/09 08:17:16;;;;;;;144.80;91.70;;;;;;;-3.05;99.24;97745.39;105246;1271;61227;-72
2022/01/09 08:19:42;;;;;;;122.80;80.40;;;;;;;-2.95;99.23;97746.61;104992;1271;76179;-72
2022/01/09 08:22:09;;;;;;;126.20;85.20;;;;;;;-2.87;99.24;97747.21;105206;1271;61263;-72
2022/01/09 08:24:37;;;;;;;129.70;81.00;;;;;;;-2.78;99.17;97745.16;105008;1271;72817;-74
2022/01/09 08:27:05;;;;;;;122.20;80.60;;;;;;;-2.68;99.27;97746.40;105254;1271;61267;-72
2022/01/09 08:29:31;;;;;;;113.80;75.20;;;;;;;-2.59;99.04;97742.81;105193;1271;61288;-72
2022/01/09 08:31:58;;;;;;;113.70;76.50;;;;;;;-2.51;99.06;97740.08;104985;1271;75190;-73
2022/01/09 08:34:24;;;;;;;114.80;77.50;;;;;;;-2.42;98.95;97736.80;104992;1271;69380;-73
2022/01/09 08:36:51;;;;;;;107.00;69.20;;;;;;;-2.33;99.00;97736.99;105243;1271;61259;-72
2022/01/09 08:39:18;;;;;;;113.60;71.50;;;;;;;-2.25;98.96;97736.54;104241;1272;1002722;-73
2022/01/09 08:41:44;;;;;;;123.20;72.30;;;;;;;-2.15;98.83;97730.98;105247;1271;60017;-75
2022/01/09 08:44:11;;;;;;;112.90;64.00;;;;;;;-2.06;98.72;97727.17;105176;1271;61292;-73
2022/01/09 08:46:38;;;;;;;117.90;69.10;;;;;;;-1.97;98.72;97729.61;105234;1271;61377;-72
2022/01/09 08:49:05;;;;;;;118.10;72.50;;;;;;;-1.86;98.65;97725.57;105178;1270;73243;-73
2022/01/09 08:51:33;;;;;;;110.10;65.80;;;;;;;-1.77;98.49;97724.35;105291;1271;61289;-73
2022/01/09 08:54:00;;;;;;;95.50;60.70;;;;;;;-1.67;98.43;97724.17;105291;1271;61238;-73
2022/01/09 08:56:28;;;;;;;92.40;57.60;;;;;;;-1.58;98.35;97714.58;105194;1271;75215;-74
2022/01/09 08:58:57;;;;;;;91.90;58.20;;;;;;;-1.49;98.17;97712.84;105290;1271;69148;-72
2022/01/09 09:01:24;;;;;;;88.10;57.20;;;;;;;-1.40;98.10;97710.71;105220;1271;73372;-73
2022/01/09 09:03:51;;;;;;;79.50;54.30;;;;;;;-1.30;97.91;97707.92;105186;1271;61315;-74
2022/01/09 09:06:18;;;;;;;85.30;54.40;;;;;;;-1.22;97.84;97712.10;105243;1271;61373;-74
2022/01/09 09:08:44;;;;;;;79.90;52.70;;;;;;;-1.13;97.74;97711.59;105277;1271;74656;-73
2022/01/09 09:11:12;;;;;;;76.70;50.00;;;;;;;-1.05;97.56;97707.92;105264;1271;70173;-73
2022/01/09 09:13:39;;;;;;;76.60;50.10;;;;;;;-0.96;97.54;97703.02;105193;1271;74296;-74
2022/01/09 09:16:06;;;;;;;78.00;49.40;;;;;;;-0.85;97.39;97699.80;105410;1271;61364;-74
2022/01/09 09:18:34;;;;;;;65.40;45.30;;;;;;;-0.75;97.23;97694.64;105021;1274;61339;-73
2022/01/09 09:21:00;;;;;;;63.20;42.50;;;;;;;-0.64;96.99;97691.56;105290;1270;73786;-73
2022/01/09 09:23:27;;;;;;;63.40;40.00;;;;;;;-0.53;96.68;97691.98;105260;1271;61389;-73
2022/01/09 09:25:53;;;;;;;61.90;39.40;;;;;;;-0.43;96.53;97690.34;105212;1271;61404;-72
2022/01/09 09:28:20;;;;;;;57.60;34.90;;;;;;;-0.33;96.39;97687.98;105008;1271;61352;-73
2022/01/09 09:30:46;;;;;;;50.80;34.50;;;;;;;-0.24;96.08;97687.21;105256;1271;61192;-73
2022/01/09 09:33:13;;;;;;;46.80;32.10;;;;;;;-0.13;95.95;97688.98;105217;1269;75168;-73
2022/01/09 09:35:39;;;;;;;40.90;26.40;;;;;;;-0.02;95.77;97683.08;105224;1271;61249;-73
2022/01/09 09:38:06;;;;;;;37.50;24.50;;;;;;;0.10;95.22;97683.23;105211;1271;61173;-73
2022/01/09 09:40:32;;;;;;;32.00;22.90;;;;;;;0.22;94.77;97690.20;105237;1271;61231;-74
2022/01/09 09:42:59;;;;;;;35.20;22.90;;;;;;;0.32;94.56;97687.82;105241;1271;61208;-72
2022/01/09 09:45:26;;;;;;;35.10;22.90;;;;;;;0.39;94.31;97686.42;105423;1271;74752;-74
2022/01/09 09:47:53;;;;;;;33.80;22.40;;;;;;;0.50;94.04;97687.31;105239;1271;69244;-75
2022/01/09 09:50:21;;;;;;;33.80;22.70;;;;;;;0.59;93.68;97685.47;105198;1271;61150;-73
2022/01/09 09:52:49;;;;;;;33.40;23.60;;;;;;;0.66;93.51;97679.21;105088;1271;61362;-73
2022/01/09 09:55:18;;;;;;;39.20;24.10;;;;;;;0.74;93.13;97678.65;105281;1271;61131;-73
2022/01/09 09:57:46;;;;;;;37.90;22.80;;;;;;;0.82;92.91;97681.03;105414;1271;75224;-73
2022/01/09 10:00:18;;;;;;;42.40;27.50;;;;;;;0.91;92.84;97676.41;105503;1270;70468;-74
2022/01/09 10:03:01;;;;;;;45.10;28.10;;;;;;;0.99;92.66;97673.58;105239;1271;73561;-73
2022/01/09 10:05:36;;;;;;;47.60;27.60;;;;;;;1.07;92.23;97669.17;105296;1271;61259;-73
2022/01/09 10:08:15;;;;;;;57.20;31.40;;;;;;;1.13;91.69;97667.46;105215;1271;61292;-72
2022/01/09 10:10:44;;;;;;;45.50;27.80;;;;;;;1.22;91.56;97666.81;104982;1272;74872;-73
2022/01/09 10:13:11;;;;;;;56.80;34.60;;;;;;;1.29;90.86;97664.34;105263;1271;68693;-73
2022/01/09 10:16:01;;;;;;;47.80;28.70;;;;;;;1.33;90.60;97665.20;105198;1271;73482;-73
2022/01/09 10:18:42;;;;;;;34.50;22.20;;;;;;;1.38;90.45;97662.50;105253;1271;61255;-73
2022/01/09 10:21:16;;;;;;;30.20;20.70;;;;;;;1.42;90.17;97659.68;104467;1271;1002829;-74
2022/01/09 10:24:02;;;;;;;35.40;21.00;;;;;;;1.45;89.96;97658.82;105271;1271;75370;-73
2022/01/09 10:26:35;;;;;;;36.50;23.30;;;;;;;1.52;89.62;97667.02;105209;1272;70339;-74
2022/01/09 10:29:04;;;;;;;29.00;19.00;;;;;;;1.58;89.31;97666.21;105165;1271;73484;-74
2022/01/09 10:31:30;;;;;;;33.60;21.20;;;;;;;1.63;88.91;97663.16;105210;1271;61266;-74
2022/01/09 10:34:10;;;;;;;27.80;18.40;;;;;;;1.68;88.44;97664.13;105213;1271;61171;-73
2022/01/09 10:36:49;;;;;;;32.10;19.80;;;;;;;1.75;88.34;97660.27;104978;1271;72558;-74
2022/01/09 10:39:19;;;;;;;32.00;20.10;;;;;;;1.79;88.26;97654.61;105295;1271;70374;-73
2022/01/09 10:41:48;;;;;;;;;;;;;;;1.84;87.99;97656.11;105281;1271;74556;-73
2022/01/09 10:44:19;;;;;;;27.00;18.00;;;;;;;1.87;87.85;97654.34;105261;1271;61376;-71
2022/01/09 10:46:58;;;;;;;31.30;18.90;;;;;;;1.91;87.69;97653.43;105182;1271;61242;-73
2022/01/09 10:49:46;;;;;;;29.80;18.90;;;;;;;1.94;87.22;97655.73;105273;1271;75340;-72
2022/01/09 10:52:19;;;;;;;28.30;18.30;;;;;;;1.99;87.03;97658.07;105201;1271;68876;-70
2022/01/09 10:54:48;;;;;;;24.90;18.50;;;;;;;2.02;86.76;97658.64;105186;1271;74370;-71
2022/01/09 10:57:19;;;;;;;25.90;20.30;;;;;;;2.04;86.49;97652.06;105204;1271;61202;-73
2022/01/09 10:59:46;;;;;;;26.50;18.50;;;;;;;2.07;86.29;97649.09;105194;1271;62326;-71
2022/01/09 11:02:14;;;;;;;27.60;17.50;;;;;;;2.13;86.43;97647.34;105170;1271;76340;-72
2022/01/09 11:04:43;;;;;;;24.70;17.20;;;;;;;2.19;86.58;97649.31;105258;1271;69303;-73
2022/01/09 11:07:11;;;;;;;23.80;16.70;;;;;;;2.24;86.09;97647.13;105013;1272;73418;-73